This is the latest recevied weather packets stored in our database for station/object KC4QLP. If no packets are shown the sender has not sent any weather packets the latest 10 day(s).
| Time | Temp. | Humidity | Pressure | Rain* | Wind** | Luminosity | Snow |
|---|---|---|---|---|---|---|---|
| 1777086030 | 7.22° C | 60% | 1011.1 hPa | 0 mm | - | 0 W/m² | - |
| 1777084230 | 7.22° C | 60% | 1010.6 hPa | 0 mm | - | 0 W/m² | - |
| 1777082430 | 8.33° C | 53% | 1010.3 hPa | 0 mm | - | 0 W/m² | - |
| 1777080629 | 8.89° C | 54% | 1009.7 hPa | 0 mm | - | 0 W/m² | - |
| 1777078830 | 9.44° C | 52% | 1009 hPa | 0 mm | - | 0 W/m² | - |
| 1777077029 | 11.67° C | 43% | 1008.3 hPa | 0 mm | - | 0 W/m² | - |
| 1777075230 | 11.11° C | 48% | 1007.2 hPa | 0 mm | - | 0 W/m² | - |
| 1777073430 | 12.78° C | 36% | 1006.3 hPa | 0 mm | - | 0 W/m² | - |
| 1777071630 | 15° C | 32% | 1007 hPa | 0 mm | - | 0 W/m² | - |
| 1777069829 | 16.11° C | 27% | 1006.3 hPa | 0 mm | - | 0 W/m² | - |
| 1777068030 | 18.33° C | 23% | 1006.1 hPa | 0 mm | - | 0 W/m² | - |
| 1777066230 | 18.33° C | 23% | 1006 hPa | 0 mm | - | 0 W/m² | - |
| 1777064430 | 18.89° C | 20% | 1006 hPa | 0 mm | - | 0 W/m² | - |
| 1777062630 | 18.89° C | 20% | 1005.6 hPa | 0 mm | - | 0 W/m² | - |
| 1777060831 | 18.89° C | 21% | 1005.5 hPa | 0 mm | - | 0 W/m² | - |
| 1777059030 | 18.89° C | 21% | 1005.7 hPa | 0 mm | - | 0 W/m² | - |
| 1777057230 | 17.78° C | 24% | 1006.2 hPa | 0 mm | - | 0 W/m² | - |
| 1777055430 | 17.22° C | 24% | 1006.6 hPa | 0 mm | - | 0 W/m² | - |
| 1777053630 | 17.22° C | 26% | 1006.7 hPa | 0 mm | - | 0 W/m² | - |
| 1777051830 | 16.67° C | 23% | 1006.9 hPa | 0 mm | - | 0 W/m² | - |
| 1777050030 | 15.56° C | 27% | 1007.1 hPa | 0 mm | - | 0 W/m² | - |
| 1777048230 | 16.67° C | 28% | 1007.5 hPa | 0 mm | - | 0 W/m² | - |
| 1777046430 | 15.56° C | 30% | 1007.9 hPa | 0 mm | - | 0 W/m² | - |
| 1777044631 | 13.89° C | 35% | 1008.2 hPa | 0 mm | - | 0 W/m² | - |
| 1777042830 | 12.22° C | 39% | 1008.6 hPa | 0 mm | - | 0 W/m² | - |
* Rain latest hour (hover to see other rain measurements)
** Current wind speed in m/s (hover to see current wind gust speed)